Terminal Aerodrome Forecast
Issued by NWS La Crosse, WI

Home | Current Version | Previous Version | Text Only | Print | Product List | Glossary On
Versions: 1 2 3 4 5 6 7 8 9 10 11 12 13 14 15 16 17 18 19 20 21 22 23 24
000
FTUS43 KARX 211420 AAB
TAFLSE
TAF AMD
KLSE 211420Z 2114/2212 VRB03KT P6SM -SHRA OVC100
      TEMPO 2115/2117 5SM -TSRA BKN035CB OVC080
     FM211800 15007KT P6SM SHRA BKN090
     FM220000 13006KT P6SM +TSRA OVC090CB
     FM220600 16007KT P6SM -SHRA OVC060
     FM220900 17004KT P6SM BKN070=

USA.gov is the U.S. government's official web portal to all federal, state and local government web resources and services.